sensor_id;sensor_type;location;lat;lon;timestamp;pressure;altitude;pressure_sealevel;temperature;humidity
77869;BME280;67231;59.144;37.934;2023-05-07T00:00:25;101126.06;;;-1.19;61.59
77869;BME280;67231;59.144;37.934;2023-05-07T00:02:52;101121.72;;;-1.18;61.72
77869;BME280;67231;59.144;37.934;2023-05-07T00:05:19;101123.47;;;-1.19;61.75
77869;BME280;67231;59.144;37.934;2023-05-07T00:07:46;101119.94;;;-1.18;61.79
77869;BME280;67231;59.144;37.934;2023-05-07T00:10:13;101126.91;;;-1.18;61.99
77869;BME280;67231;59.144;37.934;2023-05-07T00:12:40;101117.44;;;-1.21;62.32
77869;BME280;67231;59.144;37.934;2023-05-07T00:15:07;101120.09;;;-1.22;62.03
77869;BME280;67231;59.144;37.934;2023-05-07T00:17:34;101127.13;;;-1.24;62.06
77869;BME280;67231;59.144;37.934;2023-05-07T00:20:02;101130.66;;;-1.27;62.16
77869;BME280;67231;59.144;37.934;2023-05-07T00:22:32;101127.25;;;-1.29;62.03
77869;BME280;67231;59.144;37.934;2023-05-07T00:24:59;101126.47;;;-1.31;62.37
77869;BME280;67231;59.144;37.934;2023-05-07T00:27:26;101136.88;;;-1.31;62.47
77869;BME280;67231;59.144;37.934;2023-05-07T00:29:53;101138.56;;;-1.30;62.57
77869;BME280;67231;59.144;37.934;2023-05-07T00:32:19;101140.38;;;-1.32;62.73
77869;BME280;67231;59.144;37.934;2023-05-07T00:34:46;101131.75;;;-1.34;62.87
77869;BME280;67231;59.144;37.934;2023-05-07T00:37:12;101142.19;;;-1.34;62.91
77869;BME280;67231;59.144;37.934;2023-05-07T00:39:39;101144.81;;;-1.36;62.66
77869;BME280;67231;59.144;37.934;2023-05-07T00:42:05;101137.00;;;-1.36;63.04
77869;BME280;67231;59.144;37.934;2023-05-07T00:44:31;101134.41;;;-1.36;63.03
77869;BME280;67231;59.144;37.934;2023-05-07T00:47:01;101147.47;;;-1.37;63.23
77869;BME280;67231;59.144;37.934;2023-05-07T00:49:38;101145.75;;;-1.38;63.40
77869;BME280;67231;59.144;37.934;2023-05-07T00:52:06;101135.34;;;-1.38;63.48
77869;BME280;67231;59.144;37.934;2023-05-07T00:54:34;101145.53;;;-1.31;63.44
77869;BME280;67231;59.144;37.934;2023-05-07T00:57:02;101140.09;;;-1.23;63.43
77869;BME280;67231;59.144;37.934;2023-05-07T00:59:31;101145.09;;;-1.17;63.27
77869;BME280;67231;59.144;37.934;2023-05-07T01:01:58;101142.50;;;-1.17;63.34
77869;BME280;67231;59.144;37.934;2023-05-07T01:04:26;101135.63;;;-1.19;63.37
77869;BME280;67231;59.144;37.934;2023-05-07T01:06:54;101137.47;;;-1.23;63.56
77869;BME280;67231;59.144;37.934;2023-05-07T01:09:24;101145.38;;;-1.26;63.86
77869;BME280;67231;59.144;37.934;2023-05-07T01:11:52;101141.06;;;-1.27;63.69
77869;BME280;67231;59.144;37.934;2023-05-07T01:14:20;101142.00;;;-1.28;64.04
77869;BME280;67231;59.144;37.934;2023-05-07T01:16:47;101139.47;;;-1.31;64.08
77869;BME280;67231;59.144;37.934;2023-05-07T01:19:18;101144.72;;;-1.33;64.12
77869;BME280;67231;59.144;37.934;2023-05-07T01:21:46;101142.19;;;-1.34;63.94
77869;BME280;67231;59.144;37.934;2023-05-07T01:24:13;101142.22;;;-1.36;64.32
77869;BME280;67231;59.144;37.934;2023-05-07T01:26:41;101143.97;;;-1.36;64.50
77869;BME280;67231;59.144;37.934;2023-05-07T01:29:08;101145.66;;;-1.35;64.41
77869;BME280;67231;59.144;37.934;2023-05-07T01:31:35;101150.00;;;-1.34;64.04
77869;BME280;67231;59.144;37.934;2023-05-07T01:34:03;101156.88;;;-1.32;64.66
77869;BME280;67231;59.144;37.934;2023-05-07T01:36:31;101159.28;;;-1.27;64.78
77869;BME280;67231;59.144;37.934;2023-05-07T01:38:58;101141.78;;;-1.22;64.90
77869;BME280;67231;59.144;37.934;2023-05-07T01:41:26;101147.75;;;-1.18;64.64
77869;BME280;67231;59.144;37.934;2023-05-07T01:43:53;101154.59;;;-1.16;64.71
77869;BME280;67231;59.144;37.934;2023-05-07T01:46:21;101157.09;;;-1.13;64.71
77869;BME280;67231;59.144;37.934;2023-05-07T01:48:48;101150.13;;;-1.11;64.88
77869;BME280;67231;59.144;37.934;2023-05-07T01:51:15;101156.88;;;-1.05;64.97
77869;BME280;67231;59.144;37.934;2023-05-07T01:53:42;101159.19;;;-0.96;64.90
77869;BME280;67231;59.144;37.934;2023-05-07T01:56:10;101157.16;;;-0.87;64.82
77869;BME280;67231;59.144;37.934;2023-05-07T01:58:39;101159.53;;;-0.80;64.91
77869;BME280;67231;59.144;37.934;2023-05-07T02:01:05;101158.19;;;-0.66;64.72
77869;BME280;67231;59.144;37.934;2023-05-07T02:03:32;101158.38;;;-0.46;64.48
77869;BME280;67231;59.144;37.934;2023-05-07T02:06:07;101169.53;;;-0.17;63.93
77869;BME280;67231;59.144;37.934;2023-05-07T02:08:36;101175.34;;;0.15;63.48
77869;BME280;67231;59.144;37.934;2023-05-07T02:11:03;101176.19;;;0.39;63.67
77869;BME280;67231;59.144;37.934;2023-05-07T02:13:33;101177.66;;;0.68;63.86
77869;BME280;67231;59.144;37.934;2023-05-07T02:16:02;101161.84;;;1.36;62.17
77869;BME280;67231;59.144;37.934;2023-05-07T02:18:29;101159.59;;;1.48;62.33
77869;BME280;67231;59.144;37.934;2023-05-07T02:20:56;101155.69;;;1.17;63.28
77869;BME280;67231;59.144;37.934;2023-05-07T02:23:22;101154.19;;;0.89;64.54
77869;BME280;67231;59.144;37.934;2023-05-07T02:25:49;101149.53;;;0.75;65.15
77869;BME280;67231;59.144;37.934;2023-05-07T02:28:15;101155.84;;;0.69;65.64
77869;BME280;67231;59.144;37.934;2023-05-07T02:30:49;101149.03;;;0.65;66.33
77869;BME280;67231;59.144;37.934;2023-05-07T02:33:16;101147.16;;;0.69;66.64
77869;BME280;67231;59.144;37.934;2023-05-07T02:35:42;101161.81;;;0.73;66.84
77869;BME280;67231;59.144;37.934;2023-05-07T02:38:10;101150.50;;;0.72;66.63
77869;BME280;67231;59.144;37.934;2023-05-07T02:40:37;101154.03;;;0.71;67.21
77869;BME280;67231;59.144;37.934;2023-05-07T02:43:07;101156.69;;;0.70;66.69
77869;BME280;67231;59.144;37.934;2023-05-07T02:45:34;101153.19;;;0.71;67.27
77869;BME280;67231;59.144;37.934;2023-05-07T02:48:02;101153.25;;;0.69;66.97
77869;BME280;67231;59.144;37.934;2023-05-07T02:50:29;101147.16;;;0.69;67.45
77869;BME280;67231;59.144;37.934;2023-05-07T02:52:55;101143.69;;;0.68;67.79
77869;BME280;67231;59.144;37.934;2023-05-07T02:55:22;101153.25;;;0.69;67.65
77869;BME280;67231;59.144;37.934;2023-05-07T02:57:48;101154.03;;;0.71;67.25
77869;BME280;67231;59.144;37.934;2023-05-07T03:00:17;101152.13;;;0.75;67.46
77869;BME280;67231;59.144;37.934;2023-05-07T03:02:55;101154.63;;;0.78;67.56
77869;BME280;67231;59.144;37.934;2023-05-07T03:05:22;101149.28;;;0.81;67.41
77869;BME280;67231;59.144;37.934;2023-05-07T03:07:48;101148.31;;;0.84;67.68
77869;BME280;67231;59.144;37.934;2023-05-07T03:10:15;101159.56;;;0.86;67.00
77869;BME280;67231;59.144;37.934;2023-05-07T03:12:42;101140.25;;;0.90;67.03
77869;BME280;67231;59.144;37.934;2023-05-07T03:15:11;101155.75;;;0.93;67.39
77869;BME280;67231;59.144;37.934;2023-05-07T03:17:40;101147.88;;;0.95;67.27
77869;BME280;67231;59.144;37.934;2023-05-07T03:20:07;101155.63;;;0.96;67.19
77869;BME280;67231;59.144;37.934;2023-05-07T03:22:34;101152.00;;;1.00;67.11
77869;BME280;67231;59.144;37.934;2023-05-07T03:25:00;101147.44;;;1.05;67.43
77869;BME280;67231;59.144;37.934;2023-05-07T03:27:28;101155.81;;;1.14;66.80
77869;BME280;67231;59.144;37.934;2023-05-07T03:29:54;101147.59;;;1.23;66.43
77869;BME280;67231;59.144;37.934;2023-05-07T03:32:21;101147.06;;;1.35;66.15
77869;BME280;67231;59.144;37.934;2023-05-07T03:34:48;101151.00;;;1.45;65.45
77869;BME280;67231;59.144;37.934;2023-05-07T03:37:14;101144.16;;;1.62;65.62
77869;BME280;67231;59.144;37.934;2023-05-07T03:39:42;101153.00;;;1.80;64.90
77869;BME280;67231;59.144;37.934;2023-05-07T03:42:09;101154.06;;;1.95;64.81
77869;BME280;67231;59.144;37.934;2023-05-07T03:44:35;101161.66;;;2.01;64.92
77869;BME280;67231;59.144;37.934;2023-05-07T03:47:04;101164.91;;;2.06;64.72
77869;BME280;67231;59.144;37.934;2023-05-07T03:49:34;101164.78;;;2.09;64.60
77869;BME280;67231;59.144;37.934;2023-05-07T03:52:01;101164.91;;;2.06;63.76
77869;BME280;67231;59.144;37.934;2023-05-07T03:54:28;101168.56;;;2.02;63.55
77869;BME280;67231;59.144;37.934;2023-05-07T03:56:54;101165.03;;;2.03;63.81
77869;BME280;67231;59.144;37.934;2023-05-07T03:59:21;101174.88;;;1.98;63.26
77869;BME280;67231;59.144;37.934;2023-05-07T04:01:48;101173.25;;;1.95;63.22
77869;BME280;67231;59.144;37.934;2023-05-07T04:04:17;101178.22;;;2.02;63.34
77869;BME280;67231;59.144;37.934;2023-05-07T04:06:44;101166.69;;;2.06;63.08
77869;BME280;67231;59.144;37.934;2023-05-07T04:09:11;101168.94;;;2.13;62.65
77869;BME280;67231;59.144;37.934;2023-05-07T04:11:38;101175.47;;;2.24;62.41
77869;BME280;67231;59.144;37.934;2023-05-07T04:14:08;101172.59;;;2.30;62.20
77869;BME280;67231;59.144;37.934;2023-05-07T04:16:35;101167.97;;;2.35;61.69
77869;BME280;67231;59.144;37.934;2023-05-07T04:19:02;101170.16;;;2.44;61.57
77869;BME280;67231;59.144;37.934;2023-05-07T04:21:29;101182.19;;;2.48;61.36
77869;BME280;67231;59.144;37.934;2023-05-07T04:23:56;101177.56;;;2.53;61.64
77869;BME280;67231;59.144;37.934;2023-05-07T04:26:22;101173.56;;;2.65;61.53
77869;BME280;67231;59.144;37.934;2023-05-07T04:28:50;101178.19;;;2.78;60.99
77869;BME280;67231;59.144;37.934;2023-05-07T04:31:17;101176.00;;;2.87;60.97
77869;BME280;67231;59.144;37.934;2023-05-07T04:33:48;101176.00;;;3.05;60.39
77869;BME280;67231;59.144;37.934;2023-05-07T04:36:15;101169.03;;;3.23;59.75
77869;BME280;67231;59.144;37.934;2023-05-07T04:38:57;101172.34;;;3.61;59.40
77869;BME280;67231;59.144;37.934;2023-05-07T04:41:24;101173.13;;;6.12;55.75
77869;BME280;67231;59.144;37.934;2023-05-07T04:43:51;101183.19;;;8.83;51.11
77869;BME280;67231;59.144;37.934;2023-05-07T04:46:20;101180.47;;;10.69;48.35
77869;BME280;67231;59.144;37.934;2023-05-07T04:48:48;101176.28;;;11.94;46.27
77869;BME280;67231;59.144;37.934;2023-05-07T04:51:14;101181.16;;;12.90;44.13
77869;BME280;67231;59.144;37.934;2023-05-07T04:53:41;101200.22;;;13.73;42.74
77869;BME280;67231;59.144;37.934;2023-05-07T04:56:09;101196.56;;;14.21;42.19
77869;BME280;67231;59.144;37.934;2023-05-07T04:58:40;101199.06;;;15.06;40.33
77869;BME280;67231;59.144;37.934;2023-05-07T05:01:07;101200.50;;;15.37;39.78
77869;BME280;67231;59.144;37.934;2023-05-07T05:03:33;101208.66;;;16.32;38.63
77869;BME280;67231;59.144;37.934;2023-05-07T05:06:00;101203.63;;;16.80;37.21
77869;BME280;67231;59.144;37.934;2023-05-07T05:08:29;101215.13;;;17.23;35.34
77869;BME280;67231;59.144;37.934;2023-05-07T05:10:57;101216.81;;;17.40;34.94
77869;BME280;67231;59.144;37.934;2023-05-07T05:13:24;101215.13;;;17.72;34.35
77869;BME280;67231;59.144;37.934;2023-05-07T05:15:50;101222.31;;;17.80;33.06
77869;BME280;67231;59.144;37.934;2023-05-07T05:18:17;101220.16;;;17.92;32.60
77869;BME280;67231;59.144;37.934;2023-05-07T05:20:46;101223.13;;;18.13;31.95
77869;BME280;67231;59.144;37.934;2023-05-07T05:23:16;101226.34;;;18.48;31.26
77869;BME280;67231;59.144;37.934;2023-05-07T05:25:43;101226.50;;;18.55;31.20
77869;BME280;67231;59.144;37.934;2023-05-07T05:28:11;101223.94;;;19.01;30.48
77869;BME280;67231;59.144;37.934;2023-05-07T05:30:39;101216.97;;;19.53;29.66
77869;BME280;67231;59.144;37.934;2023-05-07T05:33:05;101219.38;;;19.86;29.36
77869;BME280;67231;59.144;37.934;2023-05-07T05:35:32;101229.34;;;19.86;29.01
77869;BME280;67231;59.144;37.934;2023-05-07T05:38:01;101221.06;;;20.02;28.37
77869;BME280;67231;59.144;37.934;2023-05-07T05:40:28;101229.16;;;20.02;28.37
77869;BME280;67231;59.144;37.934;2023-05-07T05:42:55;101228.69;;;20.28;27.73
77869;BME280;67231;59.144;37.934;2023-05-07T05:45:22;101228.31;;;20.31;27.54
77869;BME280;67231;59.144;37.934;2023-05-07T05:47:49;101230.97;;;18.71;28.67
77869;BME280;67231;59.144;37.934;2023-05-07T05:50:15;101227.22;;;17.60;29.86
77869;BME280;67231;59.144;37.934;2023-05-07T05:52:42;101229.13;;;16.84;30.37
77869;BME280;67231;59.144;37.934;2023-05-07T05:55:11;101235.78;;;15.58;31.39
77869;BME280;67231;59.144;37.934;2023-05-07T05:57:38;101226.78;;;15.41;30.95
77869;BME280;67231;59.144;37.934;2023-05-07T06:00:05;101226.91;;;13.73;32.85
77869;BME280;67231;59.144;37.934;2023-05-07T06:02:45;101242.00;;;14.02;32.41
77869;BME280;67231;59.144;37.934;2023-05-07T06:05:15;101235.88;;;13.72;32.33
77869;BME280;67231;59.144;37.934;2023-05-07T06:07:42;101243.31;;;12.50;34.15
77869;BME280;67231;59.144;37.934;2023-05-07T06:10:09;101232.91;;;11.32;35.53
77869;BME280;67231;59.144;37.934;2023-05-07T06:12:35;101243.22;;;10.47;36.62
77869;BME280;67231;59.144;37.934;2023-05-07T06:15:03;101236.22;;;10.35;36.62
77869;BME280;67231;59.144;37.934;2023-05-07T06:17:30;101247.19;;;10.75;35.86
77869;BME280;67231;59.144;37.934;2023-05-07T06:19:57;101237.38;;;14.04;33.60
77869;BME280;67231;59.144;37.934;2023-05-07T06:22:23;101241.69;;;15.62;31.95
77869;BME280;67231;59.144;37.934;2023-05-07T06:24:50;101237.91;;;16.25;31.05
77869;BME280;67231;59.144;37.934;2023-05-07T06:27:19;101233.66;;;15.08;31.61
77869;BME280;67231;59.144;37.934;2023-05-07T06:29:50;101246.00;;;13.69;32.92
77869;BME280;67231;59.144;37.934;2023-05-07T06:32:18;101241.03;;;14.03;32.37
77869;BME280;67231;59.144;37.934;2023-05-07T06:34:45;101241.97;;;12.65;33.78
77869;BME280;67231;59.144;37.934;2023-05-07T06:37:13;101244.53;;;11.73;34.45
77869;BME280;67231;59.144;37.934;2023-05-07T06:39:59;101241.34;;;10.93;35.85
77869;BME280;67231;59.144;37.934;2023-05-07T06:42:25;101262.75;;;10.69;35.37
77869;BME280;67231;59.144;37.934;2023-05-07T06:44:57;101242.59;;;13.96;32.99
77869;BME280;67231;59.144;37.934;2023-05-07T06:47:24;101241.50;;;14.73;32.60
77869;BME280;67231;59.144;37.934;2023-05-07T06:49:53;101248.16;;;15.59;31.40
77869;BME280;67231;59.144;37.934;2023-05-07T06:52:23;101251.88;;;17.39;30.56
77869;BME280;67231;59.144;37.934;2023-05-07T06:54:51;101248.47;;;15.56;31.21
77869;BME280;67231;59.144;37.934;2023-05-07T06:57:20;101252.91;;;13.52;33.30
77869;BME280;67231;59.144;37.934;2023-05-07T06:59:46;101246.06;;;12.38;33.73
77869;BME280;67231;59.144;37.934;2023-05-07T07:02:13;101256.84;;;12.06;34.35
77869;BME280;67231;59.144;37.934;2023-05-07T07:04:40;101257.63;;;11.97;34.62
77869;BME280;67231;59.144;37.934;2023-05-07T07:07:10;101244.97;;;11.36;34.90
77869;BME280;67231;59.144;37.934;2023-05-07T07:09:37;101255.13;;;12.05;34.56
77869;BME280;67231;59.144;37.934;2023-05-07T07:12:05;101241.78;;;13.27;33.19
77869;BME280;67231;59.144;37.934;2023-05-07T07:14:32;101249.38;;;13.80;32.87
77869;BME280;67231;59.144;37.934;2023-05-07T07:16:58;101248.16;;;15.59;31.36
77869;BME280;67231;59.144;37.934;2023-05-07T07:19:25;101254.63;;;16.19;31.07
77869;BME280;67231;59.144;37.934;2023-05-07T07:21:54;101256.38;;;14.94;31.99
77869;BME280;67231;59.144;37.934;2023-05-07T07:24:21;101272.41;;;13.42;33.17
77869;BME280;67231;59.144;37.934;2023-05-07T07:26:52;101261.84;;;11.99;34.10
77869;BME280;67231;59.144;37.934;2023-05-07T07:29:21;101269.56;;;13.93;33.17
77869;BME280;67231;59.144;37.934;2023-05-07T07:31:49;101260.00;;;15.75;32.11
77869;BME280;67231;59.144;37.934;2023-05-07T07:34:17;101264.78;;;17.43;30.69
77869;BME280;67231;59.144;37.934;2023-05-07T07:36:43;101256.72;;;18.57;29.50
77869;BME280;67231;59.144;37.934;2023-05-07T07:39:10;101270.91;;;18.82;28.30
77869;BME280;67231;59.144;37.934;2023-05-07T07:41:37;101263.78;;;17.69;28.91
77869;BME280;67231;59.144;37.934;2023-05-07T07:44:05;101245.53;;;15.86;29.87
77869;BME280;67231;59.144;37.934;2023-05-07T07:46:36;101268.19;;;13.89;30.99
77869;BME280;67231;59.144;37.934;2023-05-07T07:49:03;101272.16;;;12.95;32.49
77869;BME280;67231;59.144;37.934;2023-05-07T07:51:30;101257.19;;;12.23;32.59
77869;BME280;67231;59.144;37.934;2023-05-07T07:53:57;101267.63;;;13.75;31.23
77869;BME280;67231;59.144;37.934;2023-05-07T07:56:24;101259.13;;;14.84;30.83
77869;BME280;67231;59.144;37.934;2023-05-07T07:58:51;101260.13;;;14.46;30.70
77869;BME280;67231;59.144;37.934;2023-05-07T08:01:18;101259.22;;;13.51;31.04
77869;BME280;67231;59.144;37.934;2023-05-07T08:03:46;101255.75;;;12.90;31.70
77869;BME280;67231;59.144;37.934;2023-05-07T08:06:13;101255.53;;;12.00;32.59
77869;BME280;67231;59.144;37.934;2023-05-07T08:08:40;101277.13;;;11.54;33.32
77869;BME280;67231;59.144;37.934;2023-05-07T08:11:06;101255.94;;;11.63;33.09
77869;BME280;67231;59.144;37.934;2023-05-07T08:13:36;101257.44;;;11.56;33.39
77869;BME280;67231;59.144;37.934;2023-05-07T08:16:03;101270.28;;;11.19;33.76
77869;BME280;67231;59.144;37.934;2023-05-07T08:18:30;101266.13;;;10.82;34.33
77869;BME280;67231;59.144;37.934;2023-05-07T08:21:00;101261.22;;;10.44;34.51
77869;BME280;67231;59.144;37.934;2023-05-07T08:23:27;101272.91;;;10.41;35.54
77869;BME280;67231;59.144;37.934;2023-05-07T08:25:54;101254.47;;;11.71;34.41
77869;BME280;67231;59.144;37.934;2023-05-07T08:28:21;101264.41;;;13.52;32.16
77869;BME280;67231;59.144;37.934;2023-05-07T08:30:48;101249.78;;;14.33;31.10
77869;BME280;67231;59.144;37.934;2023-05-07T08:33:14;101264.00;;;13.47;31.67
77869;BME280;67231;59.144;37.934;2023-05-07T08:35:41;101266.75;;;13.16;32.29
77869;BME280;67231;59.144;37.934;2023-05-07T08:38:12;101271.78;;;12.59;33.15
77869;BME280;67231;59.144;37.934;2023-05-07T08:40:39;101265.53;;;12.08;34.24
77869;BME280;67231;59.144;37.934;2023-05-07T08:43:15;101267.16;;;11.99;33.71
77869;BME280;67231;59.144;37.934;2023-05-07T08:45:49;101267.75;;;11.50;34.15
77869;BME280;67231;59.144;37.934;2023-05-07T08:48:22;101264.50;;;11.02;34.85
77869;BME280;67231;59.144;37.934;2023-05-07T08:50:58;101265.16;;;10.72;35.64
77869;BME280;67231;59.144;37.934;2023-05-07T08:53:25;101273.75;;;10.75;36.14
77869;BME280;67231;59.144;37.934;2023-05-07T08:55:53;101283.03;;;10.59;36.78
77869;BME280;67231;59.144;37.934;2023-05-07T08:58:19;101280.81;;;10.30;37.17
77869;BME280;67231;59.144;37.934;2023-05-07T09:00:46;101275.78;;;10.49;36.76
77869;BME280;67231;59.144;37.934;2023-05-07T09:03:14;101271.19;;;10.85;35.62
77869;BME280;67231;59.144;37.934;2023-05-07T09:05:44;101272.78;;;11.32;34.90
77869;BME280;67231;59.144;37.934;2023-05-07T09:08:14;101255.22;;;11.40;34.37
77869;BME280;67231;59.144;37.934;2023-05-07T09:10:41;101246.56;;;11.59;34.12
77869;BME280;67231;59.144;37.934;2023-05-07T09:13:08;101257.13;;;11.71;33.44
77869;BME280;67231;59.144;37.934;2023-05-07T09:15:37;101269.94;;;11.01;33.78
77869;BME280;67231;59.144;37.934;2023-05-07T09:18:03;101270.69;;;10.24;33.34
77869;BME280;67231;59.144;37.934;2023-05-07T09:20:31;101254.75;;;10.24;32.90
77869;BME280;67231;59.144;37.934;2023-05-07T09:22:58;101258.66;;;10.65;33.29
77869;BME280;67231;59.144;37.934;2023-05-07T09:25:30;101258.63;;;10.87;33.17
77869;BME280;67231;59.144;37.934;2023-05-07T09:27:59;101258.16;;;10.93;32.33
77869;BME280;67231;59.144;37.934;2023-05-07T09:30:30;101266.81;;;10.96;33.13
77869;BME280;67231;59.144;37.934;2023-05-07T09:33:00;101266.88;;;10.62;33.68
77869;BME280;67231;59.144;37.934;2023-05-07T09:35:27;101268.19;;;10.90;32.93
77869;BME280;67231;59.144;37.934;2023-05-07T09:37:59;101266.09;;;11.37;33.01
77869;BME280;67231;59.144;37.934;2023-05-07T09:40:28;101269.88;;;11.23;33.27
77869;BME280;67231;59.144;37.934;2023-05-07T09:43:09;101263.44;;;10.93;33.93
77869;BME280;67231;59.144;37.934;2023-05-07T09:45:37;101269.41;;;10.74;34.08
77869;BME280;67231;59.144;37.934;2023-05-07T09:48:06;101270.00;;;10.55;35.43
77869;BME280;67231;59.144;37.934;2023-05-07T09:50:45;101279.38;;;11.05;35.25
77869;BME280;67231;59.144;37.934;2023-05-07T09:53:16;101261.06;;;11.55;34.21
77869;BME280;67231;59.144;37.934;2023-05-07T09:55:45;101267.50;;;11.74;33.54
77869;BME280;67231;59.144;37.934;2023-05-07T09:58:13;101270.88;;;11.76;33.08
77869;BME280;67231;59.144;37.934;2023-05-07T10:00:41;101276.66;;;11.27;34.28
77869;BME280;67231;59.144;37.934;2023-05-07T10:03:12;101288.69;;;10.65;33.81
77869;BME280;67231;59.144;37.934;2023-05-07T10:05:51;101281.09;;;10.49;33.37
77869;BME280;67231;59.144;37.934;2023-05-07T10:08:19;101270.97;;;10.66;33.46
77869;BME280;67231;59.144;37.934;2023-05-07T10:10:49;101269.97;;;10.78;33.17
77869;BME280;67231;59.144;37.934;2023-05-07T10:13:19;101274.94;;;11.26;32.76
77869;BME280;67231;59.144;37.934;2023-05-07T10:15:49;101275.88;;;11.04;33.46
77869;BME280;67231;59.144;37.934;2023-05-07T10:18:18;101281.44;;;10.90;32.67
77869;BME280;67231;59.144;37.934;2023-05-07T10:20:51;101282.56;;;10.53;32.94
77869;BME280;67231;59.144;37.934;2023-05-07T10:23:23;101295.78;;;10.19;33.36
77869;BME280;67231;59.144;37.934;2023-05-07T10:25:55;101297.34;;;9.75;34.21
77869;BME280;67231;59.144;37.934;2023-05-07T10:28:24;101287.75;;;9.86;33.78
77869;BME280;67231;59.144;37.934;2023-05-07T10:30:58;101283.34;;;9.73;33.82
77869;BME280;67231;59.144;37.934;2023-05-07T10:33:37;101278.38;;;10.04;33.69
77869;BME280;67231;59.144;37.934;2023-05-07T10:36:05;101271.47;;;10.60;33.45
77869;BME280;67231;59.144;37.934;2023-05-07T10:38:33;101271.66;;;10.90;32.51
77869;BME280;67231;59.144;37.934;2023-05-07T10:41:01;101278.84;;;11.22;32.28
77869;BME280;67231;59.144;37.934;2023-05-07T10:43:44;101279.66;;;11.55;32.24
77869;BME280;67231;59.144;37.934;2023-05-07T10:46:18;101268.94;;;11.78;32.15
77869;BME280;67231;59.144;37.934;2023-05-07T10:52:20;101283.69;;;11.06;32.54
77869;BME280;67231;59.144;37.934;2023-05-07T10:58:23;101293.91;;;9.97;31.50
77869;BME280;67231;59.144;37.934;2023-05-07T11:01:00;101288.50;;;9.99;31.07
77869;BME280;67231;59.144;37.934;2023-05-07T11:04:13;101288.91;;;10.28;31.46
77869;BME280;67231;59.144;37.934;2023-05-07T11:15:09;101294.31;;;11.06;29.59
77869;BME280;67231;59.144;37.934;2023-05-07T11:17:54;101311.81;;;11.08;29.46
77869;BME280;67231;59.144;37.934;2023-05-07T11:20:20;101307.03;;;10.91;29.09
77869;BME280;67231;59.144;37.934;2023-05-07T11:22:54;101306.44;;;10.87;29.26
77869;BME280;67231;59.144;37.934;2023-05-07T11:25:36;101318.03;;;10.64;29.67
77869;BME280;67231;59.144;37.934;2023-05-07T11:28:12;101305.69;;;10.40;30.01
77869;BME280;67231;59.144;37.934;2023-05-07T11:31:01;101301.56;;;10.25;31.15
77869;BME280;67231;59.144;37.934;2023-05-07T11:33:30;101308.31;;;10.29;30.30
77869;BME280;67231;59.144;37.934;2023-05-07T11:35:57;101306.63;;;10.28;30.71
77869;BME280;67231;59.144;37.934;2023-05-07T11:38:34;101305.41;;;10.32;30.34
77869;BME280;67231;59.144;37.934;2023-05-07T11:41:01;101303.66;;;10.44;30.40
77869;BME280;67231;59.144;37.934;2023-05-07T11:43:28;101303.91;;;10.41;30.92
77869;BME280;67231;59.144;37.934;2023-05-07T11:45:54;101317.59;;;10.23;30.14
77869;BME280;67231;59.144;37.934;2023-05-07T11:48:21;101307.91;;;10.11;30.48
77869;BME280;67231;59.144;37.934;2023-05-07T11:53:25;101319.94;;;9.57;30.52
77869;BME280;67231;59.144;37.934;2023-05-07T11:55:52;101320.22;;;9.41;30.78
77869;BME280;67231;59.144;37.934;2023-05-07T11:58:24;101313.97;;;9.29;30.48
77869;BME280;67231;59.144;37.934;2023-05-07T12:00:54;101322.91;;;9.28;30.57
77869;BME280;67231;59.144;37.934;2023-05-07T12:03:21;101317.84;;;9.25;30.78
77869;BME280;67231;59.144;37.934;2023-05-07T12:05:47;101324.56;;;9.29;30.98
77869;BME280;67231;59.144;37.934;2023-05-07T12:08:23;101315.75;;;9.41;30.79
77869;BME280;67231;59.144;37.934;2023-05-07T12:10:49;101328.53;;;9.47;31.04
77869;BME280;67231;59.144;37.934;2023-05-07T12:13:19;101322.91;;;9.52;31.24
77869;BME280;67231;59.144;37.934;2023-05-07T12:15:46;101325.53;;;9.76;30.90
77869;BME280;67231;59.144;37.934;2023-05-07T12:18:13;101336.44;;;9.96;30.13
77869;BME280;67231;59.144;37.934;2023-05-07T12:20:39;101340.19;;;10.05;30.09
77869;BME280;67231;59.144;37.934;2023-05-07T12:23:05;101328.00;;;9.91;30.57
77869;BME280;67231;59.144;37.934;2023-05-07T12:25:39;101330.34;;;9.71;30.39
77869;BME280;67231;59.144;37.934;2023-05-07T12:28:12;101343.47;;;9.48;30.56
77869;BME280;67231;59.144;37.934;2023-05-07T12:30:39;101330.41;;;9.34;30.08
77869;BME280;67231;59.144;37.934;2023-05-07T12:33:06;101327.34;;;9.52;30.31
77869;BME280;67231;59.144;37.934;2023-05-07T12:35:39;101329.53;;;9.58;29.61
77869;BME280;67231;59.144;37.934;2023-05-07T12:38:11;101323.41;;;9.33;29.87
77869;BME280;67231;59.144;37.934;2023-05-07T12:43:24;101307.44;;;8.98;30.69
77869;BME280;67231;59.144;37.934;2023-05-07T12:45:53;101310.38;;;9.06;30.89
77869;BME280;67231;59.144;37.934;2023-05-07T12:48:20;101323.69;;;9.17;31.09
77869;BME280;67231;59.144;37.934;2023-05-07T12:50:50;101322.03;;;9.27;30.90
77869;BME280;67231;59.144;37.934;2023-05-07T12:53:20;101321.09;;;9.28;30.72
77869;BME280;67231;59.144;37.934;2023-05-07T12:55:48;101324.25;;;9.34;30.37
77869;BME280;67231;59.144;37.934;2023-05-07T12:58:20;101322.97;;;9.39;30.82
77869;BME280;67231;59.144;37.934;2023-05-07T13:00:50;101328.38;;;9.38;31.22
77869;BME280;67231;59.144;37.934;2023-05-07T13:03:37;101327.00;;;9.32;30.70
77869;BME280;67231;59.144;37.934;2023-05-07T13:06:06;101319.66;;;9.36;30.71
77869;BME280;67231;59.144;37.934;2023-05-07T13:08:35;101322.53;;;9.45;31.16
77869;BME280;67231;59.144;37.934;2023-05-07T13:11:04;101321.09;;;9.53;30.77